TimeCDT,TemperatureF,Dew PointF,Humidity,Sea Level PressureIn,VisibilityMPH,Wind Direction,Wind SpeedMPH,Gust SpeedMPH,PrecipitationIn,Events,Conditions,WindDirDegrees,DateUTC
12:53 AM,53.1,51.1,93,29.95,10.0,WNW,4.6,-,N/A,,Clear,300,2013-07-23 05:53:00
1:53 AM,53.1,51.1,93,29.96,10.0,NW,4.6,-,N/A,,Clear,320,2013-07-23 06:53:00
2:53 AM,53.1,51.1,93,29.96,10.0,NW,4.6,-,N/A,,Clear,320,2013-07-23 07:53:00
3:53 AM,51.1,48.9,92,29.96,10.0,NW,4.6,-,N/A,,Clear,320,2013-07-23 08:53:00
4:53 AM,50.0,48.9,96,29.96,10.0,NNW,5.8,-,N/A,,Clear,330,2013-07-23 09:53:00
5:53 AM,50.0,48.9,96,29.98,10.0,NW,3.5,-,N/A,,Scattered Clouds,310,2013-07-23 10:53:00
6:53 AM,51.1,50.0,96,30.01,10.0,NW,4.6,-,N/A,,Mostly Cloudy,310,2013-07-23 11:53:00
7:53 AM,55.0,53.1,93,30.03,10.0,Calm,Calm,-,N/A,,Overcast,0,2013-07-23 12:53:00
8:53 AM,57.9,54.0,87,30.03,10.0,North,4.6,-,N/A,,Overcast,10,2013-07-23 13:53:00
9:53 AM,61.0,55.0,81,30.04,10.0,Calm,Calm,-,N/A,,Overcast,0,2013-07-23 14:53:00
10:53 AM,63.0,55.0,75,30.05,10.0,Calm,Calm,-,N/A,,Mostly Cloudy,0,2013-07-23 15:53:00
11:53 AM,64.9,53.1,65,30.06,10.0,Calm,Calm,-,N/A,,Mostly Cloudy,0,2013-07-23 16:53:00
12:53 PM,68.0,51.1,55,30.05,10.0,Calm,Calm,-,N/A,,Mostly Cloudy,0,2013-07-23 17:53:00
1:53 PM,70.0,52.0,53,30.05,10.0,Calm,Calm,-,N/A,,Mostly Cloudy,0,2013-07-23 18:53:00
2:53 PM,72.0,51.1,48,30.04,10.0,Variable,5.8,-,N/A,,Scattered Clouds,0,2013-07-23 19:53:00
3:53 PM,73.0,54.0,51,30.03,10.0,Calm,Calm,-,N/A,,Mostly Cloudy,0,2013-07-23 20:53:00
4:53 PM,73.0,51.1,46,30.02,10.0,ENE,6.9,-,N/A,,Scattered Clouds,60,2013-07-23 21:53:00
5:53 PM,73.0,52.0,48,30.00,10.0,Calm,Calm,-,N/A,,Scattered Clouds,0,2013-07-23 22:53:00
6:53 PM,72.0,51.1,48,29.99,10.0,NNE,4.6,-,N/A,,Mostly Cloudy,30,2013-07-23 23:53:00
7:53 PM,70.0,53.1,55,29.99,10.0,ENE,3.5,-,N/A,,Mostly Cloudy,70,2013-07-24 00:53:00
8:53 PM,66.9,55.9,68,30.00,10.0,Calm,Calm,-,N/A,,Mostly Cloudy,0,2013-07-24 01:53:00
9:53 PM,62.1,55.9,80,30.01,10.0,South,3.5,-,N/A,,Scattered Clouds,180,2013-07-24 02:53:00
10:53 PM,61.0,57.0,87,30.01,10.0,SSW,4.6,-,N/A,,Scattered Clouds,210,2013-07-24 03:53:00
11:53 PM,59.0,55.9,90,30.01,10.0,SW,3.5,-,N/A,,Scattered Clouds,230,2013-07-24 04:53:00